メインページ
METAR-TAF:

METAR-TAF

空港 :

ブリスベン空港

ブリスベン, オーストラリア

緯度: 27-23S, 経度: 153-06E, 海抜: 4m

現時点の気象観測

当レポートは16分前の10:00(UTC)に作成
の風 9kt
気温 17°C
湿度 63%
気圧 1014 hPa
視程10km以上
1,500メートル以下は雲なし、積乱雲なし

METAR: YBBN 181000Z 35009KT CAVOK 17/10 Q1014

時間: 20:16 (10:16 UTC)

予報

当レポートは5時間13分前の05:03(UTC)に作成
予報は18日の 06時(UTC)から 19日の 12時(UTC)まで有効
北/北東の風 10kt
視程10km以上
1,500メートル以下は雲なし、積乱雲なし
18日の 0900時(UTC)から
北/北西の風 8kt
視程10km以上
1,500メートル以下は雲なし、積乱雲なし
18日の 1300時(UTC)から
西/南西の風 7kt
視程10km以上
1,500メートル以下は雲なし、積乱雲なし
18日の 2000時(UTC)から
西/南西の風 12kt
視程10km以上
1,500メートル以下は雲なし、積乱雲なし
19日の 0000時(UTC)から
西/南西の風 20kt、最大30ktの突風を伴う
視程10km以上
1,500メートル以下は雲なし、積乱雲なし
19日の 0800時(UTC)から
西/南西の風 14kt
視程10km以上
1,500メートル以下は雲なし、積乱雲なし

TAF: YBBN 180503Z 1806/1912 02010KT CAVOK FM180900 33008KT CAVOK FM181300 25007KT CAVOK FM182000 25012KT CAVOK FM190000 24020G30KT CAVOK FM190800 24014KT CAVOK

4,000以上の空港の気象観測と天気予報(METAR報とTAF報)

利用可能な観測所は地図上に黄色い丸と赤い丸で示す。

丸の上にカーソルを重ねると観測所名を参照できる。

次にクリックすると気象観測と天気予報を参照できる。

マップの切り替え:黒色「×」印の緑ボタンをクリックして拡大、「-」印の緑ボタンをクリックして縮小、緑色の三角印をクリックして隣りの地図に切り替え


METAR-TAF: